Terminal Aerodrome Forecast
Issued by NWS

Home | Current Version | Previous Version | Text Only | Print | Product List | Glossary On
Versions: 1 2 3 4 5 6 7 8 9 10 11 12 13 14 15 16 17
000
FTUS44 KEPZ 292336
TAFTCS
TAF
KTCS 292336Z 3000/3024 25006KT P6SM VCTS SCT060CB BKN120 BKN200
      TEMPO 3000/3004 VRB25G40KT 3SM TSRA BKN040CB OVC100
     FM300600 33007KT P6SM SCT050 BKN080 BKN200
     FM301500 06008KT P6SM FEW050 BKN120
     FM302200 15010KT P6SM VCTS SCT060CB BKN120=

USA.gov is the U.S. government's official web portal to all federal, state and local government web resources and services.